createdAt,value
2018-02-22T00:02:20.065Z,94905.98
2018-02-22T00:04:47.571Z,94913.01
2018-02-22T00:07:15.279Z,94908.22
2018-02-22T00:09:42.795Z,94909.19
2018-02-22T00:12:10.293Z,94921.88
2018-02-22T00:14:37.863Z,94923.02
2018-02-22T00:17:05.437Z,94909.72
2018-02-22T00:19:32.994Z,94923.38
2018-02-22T00:22:00.736Z,94923.92
2018-02-22T00:24:28.251Z,94924.63
2018-02-22T00:26:55.797Z,94923.98
2018-02-22T00:29:23.350Z,94917.30
2018-02-22T00:31:50.920Z,94914.84
2018-02-22T00:34:18.500Z,94906.20
2018-02-22T00:36:46.065Z,94909.69
2018-02-22T00:39:13.631Z,94895.59
2018-02-22T00:41:41.199Z,94903.21
2018-02-22T00:44:08.765Z,94898.13
2018-02-22T00:46:36.321Z,94892.66
2018-02-22T00:49:03.900Z,94908.00
2018-02-22T00:51:31.451Z,94901.66
2018-02-22T00:53:59.010Z,94893.55
2018-02-22T00:56:26.593Z,94895.34
2018-02-22T00:58:54.139Z,94893.33
2018-02-22T01:01:21.925Z,94879.49
2018-02-22T01:03:49.563Z,94876.96
2018-02-22T01:06:17.153Z,94885.88
2018-02-22T01:08:44.687Z,94890.41
2018-02-22T01:11:12.226Z,94875.27
2018-02-22T01:13:39.777Z,94877.36
2018-02-22T01:16:07.608Z,94863.27
2018-02-22T01:18:35.155Z,94864.46
2018-02-22T01:21:02.709Z,94882.18
2018-02-22T01:23:30.221Z,94869.44
2018-02-22T01:25:57.767Z,94872.33
2018-02-22T01:28:25.297Z,94870.69
2018-02-22T01:30:52.842Z,94884.13
2018-02-22T01:33:20.449Z,94870.34
2018-02-22T01:35:47.993Z,94875.06
2018-02-22T01:38:15.581Z,94882.84
2018-02-22T01:40:43.131Z,94880.44
2018-02-22T01:43:10.792Z,94886.61
2018-02-22T01:45:38.359Z,94880.44
2018-02-22T01:48:05.896Z,94882.95
2018-02-22T01:50:33.467Z,94869.50
2018-02-22T01:53:01.022Z,94872.88
2018-02-22T01:55:28.589Z,94882.78
2018-02-22T01:57:56.146Z,94879.14
2018-02-22T02:00:23.825Z,94879.39
2018-02-22T02:02:51.401Z,94884.14
2018-02-22T02:05:18.993Z,94879.00
2018-02-22T02:07:46.556Z,94886.27
2018-02-22T02:10:14.090Z,94871.48
2018-02-22T02:12:41.653Z,94904.64
2018-02-22T02:15:09.167Z,94867.23
2018-02-22T02:17:36.692Z,94866.84
2018-02-22T02:20:04.189Z,94874.57
2018-02-22T02:22:31.847Z,94872.17
2018-02-22T02:24:59.422Z,94860.08
2018-02-22T02:27:26.947Z,94872.72
2018-02-22T02:29:54.502Z,94868.24
2018-02-22T02:32:22.079Z,94870.28
2018-02-22T02:34:49.635Z,94866.00
2018-02-22T02:37:17.170Z,94872.93
2018-02-22T02:39:44.697Z,94867.00
2018-02-22T02:42:12.206Z,94871.13
2018-02-22T02:44:39.721Z,94876.56
2018-02-22T02:47:07.278Z,94851.17
2018-02-22T02:49:34.854Z,94872.48
2018-02-22T02:52:02.385Z,94875.17
2018-02-22T02:54:29.931Z,94869.49
2018-02-22T02:56:57.617Z,94872.72
2018-02-22T02:59:25.140Z,94868.50
2018-02-22T03:01:52.763Z,94865.70
2018-02-22T03:04:20.299Z,94870.09
2018-02-22T03:06:47.812Z,94867.95
2018-02-22T03:09:15.345Z,94869.08
2018-02-22T03:11:42.872Z,94872.77
2018-02-22T03:14:10.514Z,94867.80
2018-02-22T03:16:38.035Z,94873.23
2018-02-22T03:19:05.543Z,94868.70
2018-02-22T03:21:33.066Z,94869.73
2018-02-22T03:24:00.646Z,94864.35
2018-02-22T03:26:28.192Z,94858.88
2018-02-22T03:28:55.715Z,94864.37
2018-02-22T03:31:23.242Z,94862.92
2018-02-22T03:33:51.037Z,94859.92
2018-02-22T03:36:18.555Z,94863.31
2018-02-22T03:38:46.079Z,94863.45
2018-02-22T03:41:13.681Z,94854.75
2018-02-22T03:43:41.214Z,94851.42
2018-02-22T03:46:08.778Z,94862.42
2018-02-22T03:48:36.295Z,94841.91
2018-02-22T03:51:03.827Z,94860.17
2018-02-22T03:53:31.365Z,94849.42
2018-02-22T03:55:58.913Z,94849.88
2018-02-22T03:58:26.464Z,94855.59
2018-02-22T04:00:54.014Z,94863.01
2018-02-22T04:03:21.531Z,94853.00
2018-02-22T04:05:49.053Z,94851.95
2018-02-22T04:08:16.575Z,94857.58
2018-02-22T04:10:44.160Z,94856.80
2018-02-22T04:13:11.704Z,94865.77
2018-02-22T04:15:39.211Z,94862.13
2018-02-22T04:18:06.736Z,94855.24
2018-02-22T04:20:34.862Z,94861.72
2018-02-22T04:23:02.426Z,94867.66
2018-02-22T04:25:30.213Z,94877.81
2018-02-22T04:27:57.768Z,94860.17
2018-02-22T04:30:25.314Z,94855.11
2018-02-22T04:32:52.870Z,94863.63
2018-02-22T04:35:20.460Z,94860.33
2018-02-22T04:37:48.038Z,94858.19
2018-02-22T04:40:15.525Z,94859.44
2018-02-22T04:42:43.045Z,94855.80
2018-02-22T04:45:10.550Z,94860.47
2018-02-22T04:47:38.079Z,94866.70
2018-02-22T04:50:05.641Z,94857.78
2018-02-22T04:52:33.193Z,94866.40
2018-02-22T04:55:00.721Z,94862.97
2018-02-22T04:57:28.281Z,94859.58
2018-02-22T04:59:55.818Z,94874.38
2018-02-22T05:02:23.351Z,94854.61
2018-02-22T05:04:50.904Z,94879.39
2018-02-22T05:07:18.501Z,94868.00
2018-02-22T05:09:46.050Z,94866.16
2018-02-22T05:12:13.613Z,94880.39
2018-02-22T05:14:41.176Z,94872.69
2018-02-22T05:17:09.499Z,94863.97
2018-02-22T05:19:37.051Z,94875.72
2018-02-22T05:22:04.664Z,94879.49
2018-02-22T05:24:32.187Z,94870.64
2018-02-22T05:26:59.721Z,94871.37
2018-02-22T05:29:27.270Z,94871.78
2018-02-22T05:31:54.953Z,94866.95
2018-02-22T05:34:22.482Z,94881.64
2018-02-22T05:36:50.180Z,94871.44
2018-02-22T05:39:17.720Z,94878.45
2018-02-22T05:41:45.466Z,94888.11
2018-02-22T05:44:13.188Z,94879.35
2018-02-22T05:46:40.737Z,94884.78
2018-02-22T05:49:08.265Z,94898.32
2018-02-22T05:51:35.804Z,94897.13
2018-02-22T05:54:03.327Z,94911.98
2018-02-22T05:56:30.876Z,94906.45
2018-02-22T05:58:58.394Z,94902.41
2018-02-22T06:01:25.930Z,94889.16
2018-02-22T06:03:53.434Z,94886.52
2018-02-22T06:06:20.945Z,94898.38
2018-02-22T06:08:48.450Z,94908.33
2018-02-22T06:11:16.053Z,94907.28
2018-02-22T06:13:43.595Z,94908.88
2018-02-22T06:16:11.123Z,94911.98
2018-02-22T06:18:38.637Z,94917.44
2018-02-22T06:21:06.172Z,94918.60
2018-02-22T06:23:33.942Z,94911.80
2018-02-22T06:26:01.490Z,94915.69
2018-02-22T06:28:29.041Z,94921.92
2018-02-22T06:30:56.820Z,94913.48
2018-02-22T06:33:24.348Z,94907.06
2018-02-22T06:35:51.876Z,94910.73
2018-02-22T06:38:19.417Z,94936.23
2018-02-22T06:40:46.923Z,94924.45
2018-02-22T06:43:14.454Z,94925.45
2018-02-22T06:45:41.984Z,94928.50
2018-02-22T06:48:09.508Z,94919.65
2018-02-22T06:50:37.043Z,94942.38
2018-02-22T06:53:04.538Z,94932.37
2018-02-22T06:55:32.089Z,94932.22
2018-02-22T06:57:59.676Z,94931.05
2018-02-22T07:00:27.197Z,94933.05
2018-02-22T07:02:54.977Z,94937.56
2018-02-22T07:05:22.504Z,94936.70
2018-02-22T07:07:50.013Z,94936.22
2018-02-22T07:10:18.450Z,94942.07
2018-02-22T07:12:45.995Z,94934.89
2018-02-22T07:15:13.537Z,94938.30
2018-02-22T07:17:41.059Z,94937.63
2018-02-22T07:20:08.602Z,94935.26
2018-02-22T07:22:36.135Z,94935.47
2018-02-22T07:25:03.690Z,94917.35
2018-02-22T07:27:31.211Z,94911.03
2018-02-22T07:29:58.769Z,94917.70
2018-02-22T07:32:26.318Z,94915.64
2018-02-22T07:34:53.843Z,94916.29
2018-02-22T07:37:21.482Z,94925.92
2018-02-22T07:39:48.997Z,94933.69
2018-02-22T07:42:16.519Z,94930.81
2018-02-22T07:44:44.070Z,94925.58
2018-02-22T07:47:11.591Z,94950.04
2018-02-22T07:49:39.161Z,94924.69
2018-02-22T07:52:06.696Z,94931.05
2018-02-22T07:54:34.230Z,94937.50
2018-02-22T07:57:01.747Z,94938.56
2018-02-22T07:59:29.323Z,94936.42
2018-02-22T08:01:56.881Z,94938.64
2018-02-22T08:04:24.472Z,94941.44
2018-02-22T08:06:52.001Z,94931.80
2018-02-22T08:09:19.585Z,94943.59
2018-02-22T08:11:47.099Z,94953.86
2018-02-22T08:14:14.634Z,94938.29
2018-02-22T08:16:42.171Z,94931.47
2018-02-22T08:19:09.678Z,94931.82
2018-02-22T08:21:37.213Z,94937.39
2018-02-22T08:24:04.730Z,94941.66
2018-02-22T08:26:32.274Z,94944.48
2018-02-22T08:28:59.792Z,94942.27
2018-02-22T08:31:27.321Z,94953.66
2018-02-22T08:33:54.847Z,94933.64
2018-02-22T08:36:22.549Z,94940.96
2018-02-22T08:38:50.084Z,94947.84
2018-02-22T08:41:17.616Z,94954.69
2018-02-22T08:43:45.151Z,94967.48
2018-02-22T08:46:12.672Z,94945.52
2018-02-22T08:48:40.201Z,94945.85
2018-02-22T08:51:07.710Z,94928.00
2018-02-22T08:53:35.225Z,94957.28
2018-02-22T08:56:02.764Z,94941.50
2018-02-22T08:58:30.325Z,94930.10
2018-02-22T09:00:57.895Z,94933.11
2018-02-22T09:03:25.420Z,94924.09
2018-02-22T09:05:52.964Z,94920.23
2018-02-22T09:08:20.484Z,94912.98
2018-02-22T09:10:48.013Z,94928.84
2018-02-22T09:13:15.547Z,94916.84
2018-02-22T09:15:43.151Z,94927.50
2018-02-22T09:18:10.672Z,94928.22
2018-02-22T09:20:38.702Z,94945.19
2018-02-22T09:23:06.207Z,94943.30
2018-02-22T09:25:33.742Z,94939.82
2018-02-22T09:28:01.246Z,94942.76
2018-02-22T09:30:28.773Z,94958.55
2018-02-22T09:32:56.283Z,94944.70
2018-02-22T09:35:23.804Z,94958.48
2018-02-22T09:37:51.308Z,94957.34
2018-02-22T09:40:18.806Z,94935.55
2018-02-22T09:42:46.349Z,94951.28
2018-02-22T09:45:14.047Z,94944.70
2018-02-22T09:47:41.578Z,94961.95
2018-02-22T09:50:09.111Z,94949.34
2018-02-22T09:52:36.630Z,94956.27
2018-02-22T09:55:04.162Z,94945.71
2018-02-22T09:57:31.680Z,94955.88
2018-02-22T09:59:59.203Z,94956.95
2018-02-22T10:02:26.747Z,94969.00
2018-02-22T10:04:54.269Z,94954.05
2018-02-22T10:07:21.787Z,94955.09
2018-02-22T10:09:49.290Z,94964.20
2018-02-22T10:12:16.812Z,94955.02
2018-02-22T10:14:44.360Z,94963.39
2018-02-22T10:17:12.095Z,94951.58
2018-02-22T10:19:40.165Z,94954.87
2018-02-22T10:22:07.677Z,94954.09
2018-02-22T10:24:35.204Z,94956.17
2018-02-22T10:27:02.761Z,94953.45
2018-02-22T10:29:30.278Z,94965.02
2018-02-22T10:31:57.858Z,94945.19
2018-02-22T10:34:25.377Z,94961.91
2018-02-22T10:36:52.886Z,94960.24
2018-02-22T10:39:20.425Z,94973.50
2018-02-22T10:41:47.949Z,94957.36
2018-02-22T10:44:15.493Z,94953.88
2018-02-22T10:46:43.016Z,94965.86
2018-02-22T10:49:10.528Z,94958.13
2018-02-22T10:51:38.046Z,94951.74
2018-02-22T10:54:05.571Z,94947.99
2018-02-22T10:56:33.176Z,94955.75
2018-02-22T10:59:00.699Z,94934.34
2018-02-22T11:01:33.663Z,94943.61
2018-02-22T11:04:01.179Z,94941.14
2018-02-22T11:06:28.690Z,94941.23
2018-02-22T11:08:56.194Z,94957.45
2018-02-22T11:11:23.708Z,94955.54
2018-02-22T11:13:51.285Z,94957.86
2018-02-22T11:16:18.797Z,94954.58
2018-02-22T11:18:46.334Z,94944.97
2018-02-22T11:21:13.855Z,94945.66
2018-02-22T11:23:41.398Z,94960.23
2018-02-22T11:26:08.965Z,94942.59
2018-02-22T11:28:36.493Z,94936.80
2018-02-22T11:31:04.092Z,94940.03
2018-02-22T11:33:31.626Z,94956.84
2018-02-22T11:35:59.160Z,94946.66
2018-02-22T11:38:26.686Z,94949.14
2018-02-22T11:40:54.202Z,94941.00
2018-02-22T11:43:21.747Z,94932.80
2018-02-22T11:45:50.023Z,94937.91
2018-02-22T11:48:17.557Z,94929.86
2018-02-22T11:50:45.092Z,94936.08
2018-02-22T11:53:12.640Z,94926.09
2018-02-22T11:55:40.153Z,94938.79
2018-02-22T11:58:07.730Z,94932.92
2018-02-22T12:00:35.266Z,94941.75
2018-02-22T12:03:02.791Z,94931.91
2018-02-22T12:05:30.318Z,94930.34
2018-02-22T12:07:57.864Z,94918.72
2018-02-22T12:10:25.382Z,94926.61
2018-02-22T12:12:54.940Z,94909.77
2018-02-22T12:15:22.491Z,94922.34
2018-02-22T12:17:50.027Z,94916.38
2018-02-22T12:20:17.572Z,94938.55
2018-02-22T12:22:46.524Z,94910.61
2018-02-22T12:25:14.030Z,94915.78
2018-02-22T12:27:41.551Z,94920.38
2018-02-22T12:30:09.227Z,94921.95
2018-02-22T12:32:36.759Z,94933.77
2018-02-22T12:35:04.300Z,94917.56
2018-02-22T12:37:31.810Z,94912.27
2018-02-22T12:39:59.394Z,94925.17
2018-02-22T12:42:26.967Z,94924.19
2018-02-22T12:44:54.630Z,94917.05
2018-02-22T12:47:22.165Z,94924.44
2018-02-22T12:49:49.683Z,94934.91
2018-02-22T12:52:17.333Z,94948.13
2018-02-22T12:54:44.884Z,94952.03
2018-02-22T12:57:12.550Z,94939.23
2018-02-22T12:59:40.094Z,94930.09
2018-02-22T13:02:07.652Z,94932.71
2018-02-22T13:04:35.164Z,94929.91
2018-02-22T13:07:02.706Z,94943.14
2018-02-22T13:09:30.273Z,94934.43
2018-02-22T13:11:57.796Z,94946.36
2018-02-22T13:14:25.374Z,94939.03
2018-02-22T13:16:52.916Z,94932.73
2018-02-22T13:19:20.441Z,94939.28
2018-02-22T13:21:47.959Z,94922.03
2018-02-22T13:24:15.492Z,94940.16
2018-02-22T13:26:43.054Z,94937.32
2018-02-22T13:29:10.605Z,94928.77
2018-02-22T13:31:38.170Z,94938.69
2018-02-22T13:37:25.423Z,94949.78
2018-02-22T13:39:52.939Z,94943.45
2018-02-22T13:42:20.489Z,94967.09
2018-02-22T13:44:59.755Z,94964.00
2018-02-22T13:47:27.313Z,94971.41
2018-02-22T13:50:06.654Z,94954.19
2018-02-22T13:52:34.182Z,94965.34
2018-02-22T13:55:01.976Z,94950.45
2018-02-22T13:57:29.523Z,94949.45
2018-02-22T13:59:57.044Z,94941.02
2018-02-22T14:02:25.050Z,94968.28
2018-02-22T14:04:52.739Z,94954.44
2018-02-22T14:07:20.248Z,94956.30
2018-02-22T14:09:47.849Z,94956.45
2018-02-22T14:12:15.362Z,94959.90
2018-02-22T14:14:42.870Z,94972.35
2018-02-22T14:17:10.551Z,94966.91
2018-02-22T14:19:38.431Z,94969.41
2018-02-22T14:22:05.962Z,94957.97
2018-02-22T14:24:33.541Z,94970.53
2018-02-22T14:27:01.064Z,94957.29
2018-02-22T14:29:28.583Z,94964.77
2018-02-22T14:31:56.108Z,94972.47
2018-02-22T14:34:23.617Z,94976.88
2018-02-22T14:36:51.257Z,94990.36
2018-02-22T14:39:18.808Z,94987.13
2018-02-22T14:41:46.531Z,94990.35
2018-02-22T14:44:14.071Z,94987.01
2018-02-22T14:46:41.612Z,94986.20
2018-02-22T14:49:09.144Z,94986.77
2018-02-22T14:51:36.747Z,95012.05
2018-02-22T14:54:04.293Z,94989.95
2018-02-22T14:56:31.830Z,94988.72
2018-02-22T14:59:00.337Z,94995.34
2018-02-22T15:01:28.170Z,94999.12
2018-02-22T15:03:55.693Z,95003.62
2018-02-22T15:06:23.202Z,95000.25
2018-02-22T15:08:50.751Z,95008.16
2018-02-22T15:11:18.355Z,94993.45
2018-02-22T15:13:46.022Z,94994.63
2018-02-22T15:16:13.564Z,94991.20
2018-02-22T15:18:41.087Z,94997.36
2018-02-22T15:21:08.638Z,94999.68
2018-02-22T15:23:36.180Z,94990.59
2018-02-22T15:26:03.734Z,94988.07
2018-02-22T15:28:31.277Z,94997.43
2018-02-22T15:30:58.824Z,95007.72
2018-02-22T15:33:26.406Z,95003.06
2018-02-22T15:35:53.926Z,95004.74
2018-02-22T15:38:21.449Z,95003.89
2018-02-22T15:40:49.061Z,95007.55
2018-02-22T15:43:16.616Z,95014.95
2018-02-22T15:45:44.125Z,95018.02
2018-02-22T15:48:11.656Z,95027.05
2018-02-22T15:50:39.245Z,95024.85
2018-02-22T15:53:06.769Z,95024.09
2018-02-22T15:55:34.306Z,95014.80
2018-02-22T15:58:01.821Z,95016.36
2018-02-22T16:00:29.388Z,95009.77
2018-02-22T16:02:56.991Z,95031.98
2018-02-22T16:05:24.527Z,95006.64
2018-02-22T16:07:52.039Z,95019.61
2018-02-22T16:10:19.590Z,95025.20
2018-02-22T16:12:47.198Z,95023.59
2018-02-22T16:15:14.711Z,95029.23
2018-02-22T16:17:42.463Z,95037.91
2018-02-22T16:20:10.063Z,95039.26
2018-02-22T16:22:37.658Z,95043.69
2018-02-22T16:25:05.254Z,95027.23
2018-02-22T16:27:32.811Z,95043.55
2018-02-22T16:30:00.390Z,95054.85
2018-02-22T16:32:27.968Z,95054.27
2018-02-22T16:34:55.839Z,95045.75
2018-02-22T16:37:23.373Z,95045.26
2018-02-22T16:39:50.923Z,95049.61
2018-02-22T16:42:18.531Z,95043.41
2018-02-22T16:44:46.056Z,95043.04
2018-02-22T16:47:13.641Z,95050.00
2018-02-22T16:49:41.349Z,95059.64
2018-02-22T16:52:08.901Z,95072.31
2018-02-22T16:54:36.660Z,95073.47
2018-02-22T16:57:04.265Z,95072.58
2018-02-22T16:59:31.852Z,95065.09
2018-02-22T17:01:59.701Z,95080.47
2018-02-22T17:04:27.250Z,95069.97
2018-02-22T17:06:54.877Z,95080.84
2018-02-22T17:09:22.438Z,95065.13
2018-02-22T17:11:49.989Z,95074.95
2018-02-22T17:14:17.676Z,95078.34
2018-02-22T17:16:45.188Z,95073.45
2018-02-22T17:19:12.723Z,95080.51
2018-02-22T17:21:40.247Z,95073.66
2018-02-22T17:24:07.752Z,95071.09
2018-02-22T17:26:40.830Z,95078.46
2018-02-22T17:29:13.996Z,95084.33
2018-02-22T17:31:46.954Z,95091.38
2018-02-22T17:34:14.539Z,95083.08
2018-02-22T17:36:54.901Z,95095.20
2018-02-22T17:39:24.260Z,95099.91
2018-02-22T17:41:51.866Z,95086.56
2018-02-22T17:44:19.421Z,95087.39
2018-02-22T17:46:47.280Z,95090.06
2018-02-22T17:49:14.887Z,95101.38
2018-02-22T17:51:42.660Z,95107.70
2018-02-22T17:54:10.274Z,95092.20
2018-02-22T17:56:37.944Z,95102.59
2018-02-22T17:59:05.491Z,95106.38
2018-02-22T18:01:33.004Z,95094.66
2018-02-22T18:04:00.877Z,95114.02
2018-02-22T18:06:28.453Z,95111.80
2018-02-22T18:08:56.677Z,95114.03
2018-02-22T18:11:24.254Z,95114.77
2018-02-22T18:13:51.772Z,95110.08
2018-02-22T18:16:19.290Z,95109.17
2018-02-22T18:18:46.812Z,95110.24
2018-02-22T18:21:14.398Z,95121.45
2018-02-22T18:23:42.585Z,95122.40
2018-02-22T18:26:10.589Z,95118.32
2018-02-22T18:28:38.114Z,95125.00
2018-02-22T18:31:05.636Z,95109.56
2018-02-22T18:33:33.185Z,95132.44
2018-02-22T18:36:00.864Z,95120.73
2018-02-22T18:38:28.492Z,95128.91
2018-02-22T18:41:00.094Z,95132.86
2018-02-22T18:43:33.211Z,95113.52
2018-02-22T18:46:00.807Z,95140.23
2018-02-22T18:48:28.346Z,95135.34
2018-02-22T18:50:55.893Z,95138.86
2018-02-22T18:53:23.467Z,95143.31
2018-02-22T18:55:51.059Z,95142.73
2018-02-22T18:58:18.697Z,95134.64
2018-02-22T19:00:46.319Z,95134.94
2018-02-22T19:03:14.064Z,95139.46
2018-02-22T19:05:41.599Z,95143.50
2018-02-22T19:08:09.428Z,95138.05
2018-02-22T19:10:37.022Z,95148.26
2018-02-22T19:13:04.856Z,95147.16
2018-02-22T19:15:32.435Z,95159.41
2018-02-22T19:18:00.066Z,95155.14
2018-02-22T19:20:27.715Z,95160.43
2018-02-22T19:22:55.315Z,95163.76
2018-02-22T19:27:58.941Z,95166.63
2018-02-22T19:30:26.532Z,95165.11
2018-02-22T19:32:54.150Z,95163.06
2018-02-22T19:35:21.713Z,95172.33
2018-02-22T19:37:49.274Z,95161.75
2018-02-22T19:40:16.859Z,95161.10
2018-02-22T19:42:44.482Z,95154.07
2018-02-22T19:45:12.051Z,95159.03
2018-02-22T19:47:39.656Z,95166.48
2018-02-22T19:50:07.297Z,95159.67
2018-02-22T19:52:34.848Z,95170.30
2018-02-22T19:55:02.444Z,95175.69
2018-02-22T19:57:30.045Z,95168.29
2018-02-22T19:59:57.636Z,95174.70
2018-02-22T20:02:25.142Z,95182.53
2018-02-22T20:04:52.677Z,95178.59
2018-02-22T20:07:20.308Z,95175.20
2018-02-22T20:09:47.876Z,95173.91
2018-02-22T20:12:15.426Z,95171.86
2018-02-22T20:14:42.982Z,95176.63
2018-02-22T20:17:10.577Z,95176.84
2018-02-22T20:19:38.122Z,95188.67
2018-02-22T20:22:05.633Z,95174.34
2018-02-22T20:24:37.325Z,95177.64
2018-02-22T20:27:04.931Z,95189.92
2018-02-22T20:29:33.408Z,95179.80
2018-02-22T20:32:00.992Z,95176.83
2018-02-22T20:34:28.524Z,95185.59
2018-02-22T20:36:56.179Z,95184.98
2018-02-22T20:39:23.783Z,95183.86
2018-02-22T20:41:51.314Z,95184.02
2018-02-22T20:44:18.870Z,95185.53
2018-02-22T20:46:46.401Z,95188.07
2018-02-22T20:49:14.287Z,95187.12
2018-02-22T20:51:47.386Z,95192.02
2018-02-22T20:54:14.931Z,95186.33
2018-02-22T20:56:43.189Z,95184.10
2018-02-22T20:59:10.773Z,95185.38
2018-02-22T21:01:38.363Z,95181.44
2018-02-22T21:04:21.433Z,95174.48
2018-02-22T21:06:49.026Z,95179.70
2018-02-22T21:09:16.626Z,95178.68
2018-02-22T21:11:44.232Z,95182.59
2018-02-22T21:14:11.773Z,95172.81
2018-02-22T21:16:39.329Z,95186.27
2018-02-22T21:19:06.930Z,95184.36
2018-02-22T21:21:34.497Z,95190.39
2018-02-22T21:24:02.132Z,95177.70
2018-02-22T21:26:29.682Z,95177.97
2018-02-22T21:28:57.270Z,95173.39
2018-02-22T21:31:24.907Z,95178.61
2018-02-22T21:33:52.505Z,95160.36
2018-02-22T21:36:20.045Z,95172.00
2018-02-22T21:38:47.613Z,95188.12
2018-02-22T21:41:15.234Z,95180.14
2018-02-22T21:43:42.827Z,95181.24
2018-02-22T21:46:10.438Z,95184.17
2018-02-22T21:48:38.010Z,95189.09
2018-02-22T21:51:05.611Z,95191.47
2018-02-22T21:53:33.211Z,95184.34
2018-02-22T21:56:00.782Z,95176.70
2018-02-22T21:58:28.327Z,95183.16
2018-02-22T22:00:55.896Z,95178.48
2018-02-22T22:03:23.478Z,95155.95
2018-02-22T22:05:51.016Z,95181.81
2018-02-22T22:08:18.785Z,95185.92
2018-02-22T22:10:46.930Z,95185.38
2018-02-22T22:13:14.485Z,95189.42
2018-02-22T22:15:42.101Z,95185.33
2018-02-22T22:18:09.680Z,95188.63
2018-02-22T22:20:37.242Z,95168.25
2018-02-22T22:23:04.880Z,95186.98
2018-02-22T22:25:32.469Z,95185.47
2018-02-22T22:28:00.058Z,95183.09
2018-02-22T22:30:27.716Z,95181.28
2018-02-22T22:32:55.308Z,95186.98
2018-02-22T22:35:22.854Z,95181.67
2018-02-22T22:37:50.469Z,95175.51
2018-02-22T22:40:18.052Z,95177.80
2018-02-22T22:42:45.679Z,95183.80
2018-02-22T22:45:13.297Z,95182.02
2018-02-22T22:47:40.806Z,95182.88
2018-02-22T22:50:08.381Z,95190.08
2018-02-22T22:52:35.919Z,95184.45
2018-02-22T22:55:03.512Z,95185.95
2018-02-22T22:57:31.047Z,95173.06
2018-02-22T22:59:58.631Z,95172.82
2018-02-22T23:02:27.313Z,95172.84
2018-02-22T23:04:55.132Z,95169.14
2018-02-22T23:07:22.687Z,95177.66
2018-02-22T23:09:51.512Z,95173.05
2018-02-22T23:12:19.117Z,95176.32
2018-02-22T23:14:46.697Z,95171.81
2018-02-22T23:17:14.273Z,95177.98
2018-02-22T23:19:41.789Z,95166.05
2018-02-22T23:22:09.401Z,95165.26
2018-02-22T23:24:37.007Z,95170.61
2018-02-22T23:27:04.564Z,95171.81
2018-02-22T23:29:32.073Z,95169.58
2018-02-22T23:31:59.633Z,95163.96
2018-02-22T23:34:27.178Z,95172.20
2018-02-22T23:36:54.713Z,95175.91
2018-02-22T23:39:22.309Z,95177.73
2018-02-22T23:42:07.621Z,95179.94
2018-02-22T23:44:35.149Z,95177.31
2018-02-22T23:47:02.657Z,95178.53
2018-02-22T23:49:30.236Z,95177.09
2018-02-22T23:51:57.800Z,95181.53
2018-02-22T23:54:25.567Z,95168.16
2018-02-22T23:56:53.289Z,95175.11
2018-02-22T23:59:20.855Z,95180.88
